createdAt,value
2024-02-08T00:01:09.536Z,86
2024-02-08T00:03:12.437Z,86
2024-02-08T00:09:12.395Z,86
2024-02-08T00:13:11.848Z,86
2024-02-08T00:15:11.799Z,86
2024-02-08T00:23:09.879Z,86
2024-02-08T00:25:12.546Z,86
2024-02-08T00:29:09.580Z,86
2024-02-08T00:33:11.370Z,86
2024-02-08T00:35:11.308Z,86
2024-02-08T00:37:12.137Z,86
2024-02-08T00:41:11.763Z,86
2024-02-08T00:43:12.333Z,86
2024-02-08T00:45:11.190Z,86
2024-02-08T00:53:12.293Z,86
2024-02-08T00:57:11.836Z,86
2024-02-08T00:59:11.872Z,86
2024-02-08T01:07:08.608Z,86
2024-02-08T01:09:11.109Z,86
2024-02-08T01:11:11.850Z,86
2024-02-08T01:13:11.837Z,86
2024-02-08T01:15:12.338Z,86
2024-02-08T01:17:11.764Z,86
2024-02-08T01:19:11.336Z,86
2024-02-08T01:21:12.296Z,86
2024-02-08T01:25:10.703Z,85
2024-02-08T01:27:10.310Z,86
2024-02-08T01:29:11.774Z,85
2024-02-08T01:31:12.510Z,85
2024-02-08T01:33:11.894Z,85
2024-02-08T01:35:10.474Z,85
2024-02-08T01:37:09.725Z,85
2024-02-08T01:39:10.369Z,85
2024-02-08T01:43:12.099Z,85
2024-02-08T01:45:12.519Z,85
2024-02-08T01:47:07.220Z,85
2024-02-08T01:51:11.943Z,85
2024-02-08T01:53:09.516Z,85
2024-02-08T01:55:12.413Z,85
2024-02-08T01:57:11.128Z,85
2024-02-08T02:05:10.868Z,85
2024-02-08T02:07:09.426Z,85
2024-02-08T02:09:12.344Z,85
2024-02-08T02:11:09.199Z,85
2024-02-08T02:13:11.735Z,85
2024-02-08T02:15:12.657Z,85
2024-02-08T02:17:09.579Z,85
2024-02-08T02:21:12.290Z,85
2024-02-08T02:23:09.801Z,85
2024-02-08T02:25:12.499Z,85
2024-02-08T02:27:12.097Z,85
2024-02-08T02:29:10.091Z,85
2024-02-08T02:33:12.028Z,85
2024-02-08T02:35:06.934Z,85
2024-02-08T02:39:12.593Z,85
2024-02-08T02:41:10.419Z,85
2024-02-08T02:43:12.608Z,85
2024-02-08T02:45:12.171Z,85
2024-02-08T02:47:08.556Z,85
2024-02-08T02:49:12.465Z,85
2024-02-08T02:51:11.563Z,85
2024-02-08T02:55:11.414Z,86
2024-02-08T02:57:10.162Z,86
2024-02-08T02:59:08.785Z,86
2024-02-08T03:01:12.052Z,86
2024-02-08T03:05:09.642Z,86
2024-02-08T03:07:09.416Z,86
2024-02-08T03:09:12.650Z,86
2024-02-08T03:13:11.996Z,87
2024-02-08T03:15:12.995Z,86
2024-02-08T03:21:11.422Z,87
2024-02-08T03:23:07.249Z,87
2024-02-08T03:25:12.288Z,86
2024-02-08T03:29:12.387Z,86
2024-02-08T03:31:12.578Z,86
2024-02-08T03:33:12.596Z,86
2024-02-08T03:35:09.992Z,86
2024-02-08T03:37:11.300Z,85
2024-02-08T03:41:09.799Z,85
2024-02-08T03:43:12.488Z,85
2024-02-08T03:49:11.198Z,85
2024-02-08T03:53:12.364Z,85
2024-02-08T03:55:12.338Z,85
2024-02-08T03:57:10.148Z,85
2024-02-08T04:03:12.567Z,85
2024-02-08T04:05:10.881Z,85
2024-02-08T04:07:09.651Z,85
2024-02-08T04:11:12.977Z,85
2024-02-08T04:15:10.881Z,85
2024-02-08T04:17:12.850Z,85
2024-02-08T04:19:09.609Z,85
2024-02-08T04:21:06.453Z,85
2024-02-08T04:25:09.034Z,85
2024-02-08T04:27:11.041Z,85
2024-02-08T04:29:12.598Z,85
2024-02-08T04:35:12.482Z,85
2024-02-08T04:37:10.058Z,85
2024-02-08T04:39:09.885Z,85
2024-02-08T04:41:12.821Z,85
2024-02-08T04:43:10.158Z,85
2024-02-08T04:45:10.246Z,85
2024-02-08T04:47:12.433Z,85
2024-02-08T04:49:10.577Z,85
2024-02-08T04:51:09.949Z,85
2024-02-08T04:57:10.533Z,85
2024-02-08T05:01:09.541Z,85
2024-02-08T05:03:09.626Z,85
2024-02-08T05:07:09.779Z,85
2024-02-08T05:09:10.624Z,85
2024-02-08T05:11:12.847Z,85
2024-02-08T05:13:09.911Z,85
2024-02-08T05:15:10.948Z,85
2024-02-08T05:19:10.397Z,85
2024-02-08T05:23:12.617Z,85
2024-02-08T05:25:10.492Z,85
2024-02-08T05:27:11.533Z,85
2024-02-08T05:29:12.749Z,85
2024-02-08T05:31:10.340Z,85
2024-02-08T05:33:14.206Z,85
2024-02-08T05:39:10.527Z,85
2024-02-08T05:43:12.884Z,85
2024-02-08T05:45:08.999Z,85
2024-02-08T05:47:12.470Z,85
2024-02-08T05:51:09.687Z,85
2024-02-08T05:53:10.975Z,85
2024-02-08T05:55:12.721Z,85
2024-02-08T05:57:06.788Z,85
2024-02-08T05:59:10.560Z,85
2024-02-08T06:01:13.285Z,85
2024-02-08T06:05:11.027Z,85
2024-02-08T06:09:11.959Z,86
2024-02-08T06:11:11.810Z,85
2024-02-08T06:13:12.546Z,86
2024-02-08T06:15:11.556Z,86
2024-02-08T06:17:12.317Z,86
2024-02-08T06:19:13.508Z,86
2024-02-08T06:21:12.351Z,86
2024-02-08T06:25:12.174Z,86
2024-02-08T06:27:10.421Z,86
2024-02-08T06:29:11.990Z,86
2024-02-08T06:31:12.973Z,86
2024-02-08T06:33:09.973Z,86
2024-02-08T06:35:09.836Z,86
2024-02-08T06:37:13.685Z,86
2024-02-08T06:39:08.487Z,86
2024-02-08T06:41:12.229Z,86
2024-02-08T06:45:08.799Z,86
2024-02-08T06:47:10.603Z,86
2024-02-08T06:49:13.846Z,86
2024-02-08T06:53:10.354Z,85
2024-02-08T06:57:09.800Z,86
2024-02-08T06:59:13.742Z,86
2024-02-08T07:01:16.680Z,85
2024-02-08T07:03:13.251Z,85
2024-02-08T07:05:13.493Z,86
2024-02-08T07:13:15.686Z,86
2024-02-08T07:19:15.930Z,86
2024-02-08T07:21:12.685Z,86
2024-02-08T07:23:10.046Z,86
2024-02-08T07:25:16.319Z,87
2024-02-08T07:27:10.182Z,86
2024-02-08T07:29:11.469Z,86
2024-02-08T07:33:10.939Z,87
2024-02-08T07:37:09.609Z,87
2024-02-08T07:39:10.576Z,87
2024-02-08T07:41:11.187Z,87
2024-02-08T07:43:17.133Z,87
2024-02-08T07:45:14.683Z,87
2024-02-08T07:49:16.706Z,87
2024-02-08T07:51:08.655Z,87
2024-02-08T07:53:11.984Z,86
2024-02-08T07:59:13.118Z,87
2024-02-08T08:01:15.705Z,87
2024-02-08T08:03:17.339Z,88
2024-02-08T08:05:10.600Z,87
2024-02-08T08:09:13.917Z,87
2024-02-08T08:11:08.277Z,87
2024-02-08T08:13:16.165Z,87
2024-02-08T08:15:15.148Z,86
2024-02-08T08:17:14.901Z,86
2024-02-08T08:21:13.487Z,86
2024-02-08T08:23:13.058Z,86
2024-02-08T08:27:16.465Z,86
2024-02-08T08:29:06.410Z,86
2024-02-08T08:31:13.479Z,86
2024-02-08T08:33:16.492Z,86
2024-02-08T08:35:15.223Z,86
2024-02-08T08:39:16.356Z,86
2024-02-08T08:41:09.700Z,86
2024-02-08T08:43:14.936Z,86
2024-02-08T08:47:16.618Z,86
2024-02-08T08:49:11.857Z,86
2024-02-08T08:51:14.159Z,86
2024-02-08T08:53:17.579Z,86
2024-02-08T08:55:09.727Z,86
2024-02-08T08:57:14.453Z,86
2024-02-08T09:01:14.502Z,86
2024-02-08T09:03:08.283Z,86
2024-02-08T09:09:12.097Z,86
2024-02-08T09:15:16.138Z,85
2024-02-08T09:17:23.060Z,85
2024-02-08T09:19:11.786Z,86
2024-02-08T09:25:22.690Z,86
2024-02-08T09:49:17.741Z,80
2024-02-08T09:51:10.628Z,85
2024-02-08T09:53:11.962Z,84
2024-02-08T09:57:09.522Z,83
2024-02-08T09:59:10.105Z,83
2024-02-08T10:01:09.862Z,81
2024-02-08T10:03:16.651Z,80
2024-02-08T10:05:09.955Z,81
2024-02-08T10:07:16.477Z,81
2024-02-08T10:09:09.774Z,80
2024-02-08T10:11:11.787Z,80
2024-02-08T10:15:11.800Z,80
2024-02-08T10:17:11.550Z,80
2024-02-08T10:19:15.955Z,80
2024-02-08T10:21:13.238Z,80
2024-02-08T10:23:09.653Z,80
2024-02-08T10:27:13.481Z,80
2024-02-08T10:29:10.563Z,80
2024-02-08T10:31:10.748Z,80
2024-02-08T10:37:10.750Z,80
2024-02-08T10:39:12.630Z,80
2024-02-08T10:41:14.517Z,80
2024-02-08T10:43:06.273Z,80
2024-02-08T10:51:11.583Z,81
2024-02-08T10:53:10.983Z,82
2024-02-08T10:55:11.990Z,81
2024-02-08T10:57:09.681Z,82
2024-02-08T11:03:11.419Z,82
2024-02-08T11:05:08.142Z,82
2024-02-08T11:07:12.903Z,82
2024-02-08T11:09:13.268Z,82
2024-02-08T11:11:09.582Z,82
2024-02-08T11:13:14.536Z,83
2024-02-08T11:17:14.870Z,83
2024-02-08T11:21:12.439Z,83
2024-02-08T11:23:14.380Z,82
2024-02-08T11:29:14.641Z,83
2024-02-08T11:31:14.235Z,83
2024-02-08T11:33:12.092Z,83
2024-02-08T11:37:11.103Z,82
2024-02-08T11:39:10.503Z,81
2024-02-08T11:41:12.173Z,81
2024-02-08T11:45:12.551Z,82
2024-02-08T11:47:12.634Z,82
2024-02-08T11:49:11.462Z,82
2024-02-08T11:53:13.706Z,82
2024-02-08T11:55:12.778Z,81
2024-02-08T11:57:13.535Z,81
2024-02-08T11:59:14.759Z,81
2024-02-08T12:03:13.949Z,80
2024-02-08T12:07:15.157Z,81
2024-02-08T12:10:34.161Z,81
2024-02-08T12:12:34.161Z,82
2024-02-08T12:14:34.188Z,82
2024-02-08T12:16:34.287Z,82
2024-02-08T12:18:34.242Z,83
2024-02-08T12:20:34.186Z,83
2024-02-08T12:22:34.199Z,83
2024-02-08T12:24:34.622Z,84
2024-02-08T12:26:34.188Z,83
2024-02-08T12:28:34.220Z,83
2024-02-08T12:32:34.203Z,83
2024-02-08T12:34:34.589Z,83
2024-02-08T12:36:34.185Z,82
2024-02-08T12:38:35.402Z,82
2024-02-08T12:40:34.432Z,82
2024-02-08T12:42:34.180Z,83
2024-02-08T12:44:34.187Z,83
2024-02-08T12:46:34.307Z,83
2024-02-08T12:48:34.219Z,83
2024-02-08T12:50:34.229Z,83
2024-02-08T12:52:34.261Z,83
2024-02-08T12:56:34.218Z,83
2024-02-08T12:58:34.215Z,82
2024-02-08T13:00:34.198Z,82
2024-02-08T13:02:34.396Z,82
2024-02-08T13:04:34.233Z,81
2024-02-08T13:06:34.201Z,81
2024-02-08T13:08:34.214Z,82
2024-02-08T13:10:36.966Z,83
2024-02-08T13:12:34.193Z,83
2024-02-08T13:14:34.188Z,82
2024-02-08T13:16:34.316Z,83
2024-02-08T13:18:34.202Z,83
2024-02-08T13:20:34.317Z,83
2024-02-08T13:22:34.276Z,83
2024-02-08T13:24:34.199Z,83
2024-02-08T13:26:36.556Z,83
2024-02-08T13:28:34.268Z,83
2024-02-08T13:30:34.203Z,83
2024-02-08T13:32:34.227Z,83
2024-02-08T13:34:34.222Z,83
2024-02-08T13:38:34.199Z,82
2024-02-08T13:42:38.755Z,82
2024-02-08T13:44:34.329Z,81
2024-02-08T13:46:36.488Z,82
2024-02-08T13:48:34.266Z,81
2024-02-08T13:50:34.314Z,81
2024-02-08T13:52:34.215Z,82
2024-02-08T13:54:34.181Z,81
2024-02-08T13:56:34.185Z,82
2024-02-08T13:58:34.306Z,82
2024-02-08T14:00:34.298Z,81
2024-02-08T14:02:34.194Z,81
2024-02-08T14:04:34.215Z,81
2024-02-08T14:07:03.123Z,82
2024-02-08T14:09:03.033Z,81
2024-02-08T14:13:03.035Z,81
2024-02-08T14:15:03.075Z,77
2024-02-08T14:19:03.091Z,80
2024-02-08T14:21:03.450Z,81
2024-02-08T14:23:03.062Z,82
2024-02-08T14:25:03.064Z,82
2024-02-08T14:27:03.161Z,82
2024-02-08T14:29:03.102Z,82
2024-02-08T14:31:03.076Z,83
2024-02-08T14:33:03.087Z,83
2024-02-08T14:35:03.185Z,83
2024-02-08T14:37:03.100Z,83
2024-02-08T14:39:03.043Z,83
2024-02-08T14:41:03.077Z,83
2024-02-08T14:43:03.099Z,83
2024-02-08T14:45:03.569Z,83
2024-02-08T14:47:03.156Z,82
2024-02-08T14:49:03.166Z,82
2024-02-08T14:51:03.082Z,82
2024-02-08T14:53:03.097Z,82
2024-02-08T14:55:03.085Z,82
2024-02-08T14:57:03.145Z,82
2024-02-08T14:59:03.277Z,83
2024-02-08T15:01:04.799Z,82
2024-02-08T15:03:03.137Z,83
2024-02-08T15:05:03.262Z,82
2024-02-08T15:07:03.252Z,83
2024-02-08T15:09:03.076Z,83
2024-02-08T15:11:03.072Z,82
2024-02-08T15:13:03.082Z,83
2024-02-08T15:15:03.110Z,83
2024-02-08T15:17:03.063Z,82
2024-02-08T15:19:03.169Z,83
2024-02-08T15:21:03.109Z,83
2024-02-08T15:23:03.078Z,83
2024-02-08T15:25:03.159Z,83
2024-02-08T15:27:03.219Z,83
2024-02-08T15:29:03.131Z,83
2024-02-08T15:31:03.055Z,83
2024-02-08T15:33:03.120Z,83
2024-02-08T15:35:03.196Z,83
2024-02-08T15:37:03.322Z,83
2024-02-08T15:39:03.063Z,83
2024-02-08T15:41:03.057Z,83
2024-02-08T15:43:03.142Z,83
2024-02-08T15:47:03.088Z,83
2024-02-08T15:49:03.198Z,83
2024-02-08T15:51:03.116Z,83
2024-02-08T15:53:03.086Z,83
2024-02-08T15:55:03.115Z,83
2024-02-08T15:57:03.089Z,83
2024-02-08T15:59:03.220Z,83
2024-02-08T16:01:03.161Z,83
2024-02-08T16:03:03.167Z,83
2024-02-08T16:05:03.186Z,83
2024-02-08T16:07:03.276Z,83
2024-02-08T16:09:03.155Z,83
2024-02-08T16:11:03.072Z,83
2024-02-08T16:13:03.088Z,83
2024-02-08T16:15:03.142Z,82
2024-02-08T16:17:03.110Z,83
2024-02-08T16:19:03.250Z,83
2024-02-08T16:21:03.077Z,83
2024-02-08T16:23:03.063Z,83
2024-02-08T16:25:03.105Z,83
2024-02-08T16:27:03.151Z,83
2024-02-08T16:31:03.146Z,83
2024-02-08T16:33:03.169Z,83
2024-02-08T16:35:03.114Z,83
2024-02-08T16:37:03.163Z,83
2024-02-08T16:39:03.089Z,83
2024-02-08T16:41:03.076Z,83
2024-02-08T16:43:03.161Z,83
2024-02-08T16:45:03.221Z,83
2024-02-08T16:47:03.092Z,83
2024-02-08T16:49:03.090Z,83
2024-02-08T16:51:03.128Z,83
2024-02-08T16:57:03.080Z,83
2024-02-08T16:59:03.109Z,82
2024-02-08T17:01:03.138Z,83
2024-02-08T17:03:03.084Z,83
2024-02-08T17:05:03.221Z,83
2024-02-08T17:07:03.367Z,82
2024-02-08T17:09:03.086Z,82
2024-02-08T17:11:03.458Z,82
2024-02-08T17:13:03.230Z,82
2024-02-08T17:15:03.109Z,82
2024-02-08T17:17:03.076Z,82
2024-02-08T17:19:03.375Z,82
2024-02-08T17:21:03.104Z,83
2024-02-08T17:23:03.093Z,83
2024-02-08T17:27:03.135Z,83
2024-02-08T17:29:03.108Z,83
2024-02-08T17:31:03.122Z,83
2024-02-08T17:35:03.256Z,83
2024-02-08T17:37:05.832Z,83
2024-02-08T17:39:05.704Z,83
2024-02-08T17:41:05.660Z,83
2024-02-08T17:47:05.646Z,83
2024-02-08T17:51:41.276Z,83
2024-02-08T17:53:41.280Z,83
2024-02-08T17:55:41.266Z,83
2024-02-08T17:57:41.246Z,84
2024-02-08T17:59:41.301Z,84
2024-02-08T18:01:41.455Z,83
2024-02-08T18:03:41.348Z,84
2024-02-08T18:05:41.280Z,84
2024-02-08T18:07:41.401Z,84
2024-02-08T18:09:41.602Z,83
2024-02-08T18:11:41.281Z,84
2024-02-08T18:22:05.218Z,83
2024-02-08T18:26:04.790Z,84
2024-02-08T18:32:12.420Z,84
2024-02-08T18:34:06.809Z,84
2024-02-08T18:36:06.860Z,84
2024-02-08T18:38:07.131Z,84
2024-02-08T18:42:06.881Z,84
2024-02-08T18:44:13.828Z,84
2024-02-08T18:47:27.301Z,83
2024-02-08T18:49:32.935Z,84
2024-02-08T18:51:23.874Z,84
2024-02-08T18:53:29.976Z,84
2024-02-08T18:55:27.406Z,84
2024-02-08T18:57:52.581Z,84
2024-02-08T19:01:54.396Z,84
2024-02-08T19:03:50.573Z,84
2024-02-08T19:06:31.465Z,84
2024-02-08T19:08:31.062Z,84
2024-02-08T19:10:31.095Z,84
2024-02-08T19:12:30.868Z,84
2024-02-08T19:14:30.774Z,83
2024-02-08T19:16:32.161Z,83
2024-02-08T19:18:32.453Z,83
2024-02-08T19:20:32.441Z,83
2024-02-08T19:22:32.061Z,83
2024-02-08T19:24:32.054Z,83
2024-02-08T19:26:32.284Z,84
2024-02-08T19:28:33.303Z,83
2024-02-08T19:32:32.082Z,83
2024-02-08T19:34:32.213Z,83
2024-02-08T19:38:32.060Z,83
2024-02-08T19:40:32.130Z,83
2024-02-08T19:42:32.172Z,83
2024-02-08T19:44:32.085Z,83
2024-02-08T19:46:32.038Z,83
2024-02-08T19:50:32.078Z,83
2024-02-08T19:52:32.151Z,82
2024-02-08T19:54:32.088Z,83
2024-02-08T19:56:32.034Z,83
2024-02-08T19:58:32.175Z,83
2024-02-08T20:00:32.103Z,83
2024-02-08T20:02:32.435Z,82
2024-02-08T20:04:32.086Z,82
2024-02-08T20:06:32.147Z,82
2024-02-08T20:08:32.074Z,82
2024-02-08T20:10:32.067Z,82
2024-02-08T20:12:32.046Z,82
2024-02-08T20:14:32.065Z,82
2024-02-08T20:16:32.179Z,82
2024-02-08T20:22:32.080Z,82
2024-02-08T20:24:32.320Z,82
2024-02-08T20:26:32.111Z,83
2024-02-08T20:28:32.114Z,82
2024-02-08T20:30:32.035Z,82
2024-02-08T20:32:32.050Z,82
2024-02-08T20:34:32.091Z,82
2024-02-08T20:36:32.086Z,82
2024-02-08T20:38:32.066Z,82
2024-02-08T20:40:32.081Z,82
2024-02-08T20:42:32.053Z,82
2024-02-08T20:46:32.035Z,82
2024-02-08T20:48:32.116Z,82
2024-02-08T20:50:32.056Z,82
2024-02-08T20:52:32.156Z,82
2024-02-08T20:54:32.069Z,82
2024-02-08T20:56:32.091Z,82
2024-02-08T20:58:32.083Z,82
2024-02-08T21:02:32.036Z,82
2024-02-08T21:04:32.060Z,82
2024-02-08T21:06:32.106Z,82
2024-02-08T21:08:32.091Z,81
2024-02-08T21:10:32.071Z,81
2024-02-08T21:12:32.182Z,81
2024-02-08T21:14:32.075Z,81
2024-02-08T21:16:32.102Z,81
2024-02-08T21:18:32.165Z,81
2024-02-08T21:20:32.130Z,81
2024-02-08T21:22:32.200Z,81
2024-02-08T21:24:32.232Z,81
2024-02-08T21:26:32.202Z,81
2024-02-08T21:28:32.292Z,81
2024-02-08T21:30:32.090Z,81
2024-02-08T21:32:32.067Z,81
2024-02-08T21:34:32.184Z,81
2024-02-08T21:36:32.109Z,81
2024-02-08T21:38:32.215Z,81
2024-02-08T21:40:32.159Z,81
2024-02-08T21:42:32.100Z,82
2024-02-08T21:44:32.250Z,82
2024-02-08T21:46:32.221Z,82
2024-02-08T21:48:32.263Z,81
2024-02-08T21:50:32.106Z,82
2024-02-08T21:52:32.082Z,82
2024-02-08T21:56:32.135Z,82
2024-02-08T21:58:32.299Z,82
2024-02-08T22:00:33.849Z,83
2024-02-08T22:02:32.122Z,83
2024-02-08T22:06:32.168Z,83
2024-02-08T22:08:32.155Z,83
2024-02-08T22:10:32.080Z,83
2024-02-08T22:14:32.162Z,82
2024-02-08T22:16:32.191Z,83
2024-02-08T22:18:32.065Z,83
2024-02-08T22:24:32.038Z,84
2024-02-08T22:26:32.142Z,83
2024-02-08T22:28:32.311Z,84
2024-02-08T22:30:32.113Z,84
2024-02-08T22:32:32.103Z,85
2024-02-08T22:34:32.126Z,85
2024-02-08T22:36:32.106Z,85
2024-02-08T22:38:32.164Z,85
2024-02-08T22:40:32.154Z,85
2024-02-08T22:42:32.062Z,86
2024-02-08T22:44:32.239Z,86
2024-02-08T22:46:32.321Z,85
2024-02-08T22:48:32.093Z,85
2024-02-08T22:50:32.136Z,85
2024-02-08T22:52:32.035Z,85
2024-02-08T22:54:32.121Z,85
2024-02-08T22:56:32.053Z,85
2024-02-08T22:58:32.081Z,85
2024-02-08T23:00:32.057Z,85
2024-02-08T23:02:32.099Z,85
2024-02-08T23:04:32.240Z,85
2024-02-08T23:06:34.317Z,85
2024-02-08T23:10:32.179Z,85
2024-02-08T23:12:32.105Z,85
2024-02-08T23:14:32.077Z,85
2024-02-08T23:18:32.101Z,85
2024-02-08T23:20:32.115Z,85
2024-02-08T23:22:32.270Z,85
2024-02-08T23:24:32.108Z,85
2024-02-08T23:26:32.111Z,85
2024-02-08T23:28:32.118Z,85
2024-02-08T23:30:32.049Z,85
2024-02-08T23:32:32.100Z,85
2024-02-08T23:34:32.156Z,86
2024-02-08T23:36:32.063Z,86
2024-02-08T23:38:32.089Z,85
2024-02-08T23:40:32.156Z,85
2024-02-08T23:42:32.143Z,85
2024-02-08T23:44:32.103Z,85
2024-02-08T23:46:32.121Z,85
2024-02-08T23:48:32.151Z,86
2024-02-08T23:50:32.085Z,85
2024-02-08T23:52:32.095Z,85
2024-02-08T23:54:32.079Z,86
